LIRS/GRS METAR and TAF weather

Enter ICAO airport designator
Station Type Date Time Source
LIRS METAR 2020/04/07 05:55 UTC NOAA

LIRS 070555Z 06004KT CAVOK 05/03 Q1026


Station Type Date Time Source
LIRS Decoded METAR 2020/04/07 05:55 UTC NOAA

Grosseto, Italy (LIRS) 42-45N 011-04E 7M
Apr 07, 2020 - 01:55 AM EDT / 2020.04.07 0555 UTC
Wind: from the ENE (060 degrees) at 5 MPH (4 KT):0
Visibility: greater than 7 mile(s):0
Temperature: 41 F (5 C)
Dew Point: 37 F (3 C)
Relative Humidity: 86%
Pressure (altimeter): 30.30 in. Hg (1026 hPa)
ob: LIRS 070555Z 06004KT CAVOK 05/03 Q1026
cycle: 6

Station Type Date Time Source
LIRS TAF 2018/06/29 09:24 UTC NOAA

TAF TAF LIRS 290800Z 2909/2921 VRB03KT 9999 FEW030
BECMG 2911/2913 24015KT

Example: see airport list